RYR19KL GCLP-LEVC
Flight info
| Callsign | RYR19KL |
|---|---|
| Flight time | 2h 35m |
| Altitude | 36000 |
| Route | KORAL UG5 SONSO DCT NIRAL UN871 OSDAM UM985 BARPA DCT XAVIR DCT PIMOS DCT RIXUR DCT PEPAS DCT ARPEX DCT KOSEL DCT BUDIT DCT ETURA DCT XEBAR DCT POBOS DCT ASTRO |
| Aircraft | B738/M-SDE3FGILRWY/SB1 |
Departure
| Time | 2026-04-27 11:13 |
|---|---|
| Airport | Gran Canaria Airport (GCLP) |
Arrival
| Time | 2026-04-27 13:48 |
|---|---|
| Airport | Valencia Airport (LEVC) |
| Time | Latitude | Longitude | Altitude | Speed | Heading |
|---|---|---|---|---|---|
| 2026-04-27 10:27 | 27.93032 | -15.39003 | 51 ft | 0 kts | 291° |
| 2026-04-27 11:07 | 27.93036 | -15.39014 | 56 ft | 3 kts | 291° |
| 2026-04-27 11:08 | 27.93043 | -15.39042 | 59 ft | 4 kts | 282° |
| 2026-04-27 11:08 | 27.93030 | -15.39072 | 52 ft | 7 kts | 213° |
| 2026-04-27 11:08 | 27.92960 | -15.39107 | 58 ft | 12 kts | 204° |
| 2026-04-27 11:08 | 27.92884 | -15.39120 | 62 ft | 12 kts | 144° |
| 2026-04-27 11:09 | 27.92847 | -15.39033 | 55 ft | 13 kts | 122° |
| 2026-04-27 11:09 | 27.92832 | -15.39013 | 60 ft | 1 kts | 137° |
| 2026-04-27 11:09 | 27.92822 | -15.39006 | 60 ft | 4 kts | 158° |
| 2026-04-27 11:09 | 27.92777 | -15.39024 | 60 ft | 11 kts | 208° |
| 2026-04-27 11:10 | 27.92672 | -15.39074 | 65 ft | 21 kts | 201° |
| 2026-04-27 11:10 | 27.92534 | -15.39136 | 62 ft | 21 kts | 201° |
| 2026-04-27 11:10 | 27.92399 | -15.39197 | 69 ft | 21 kts | 201° |
| 2026-04-27 11:10 | 27.92268 | -15.39257 | 69 ft | 20 kts | 203° |
| 2026-04-27 11:11 | 27.92142 | -15.39318 | 70 ft | 19 kts | 203° |
| 2026-04-27 11:11 | 27.92020 | -15.39378 | 69 ft | 19 kts | 203° |
| 2026-04-27 11:11 | 27.91908 | -15.39412 | 77 ft | 15 kts | 171° |
| 2026-04-27 11:11 | 27.91858 | -15.39316 | 77 ft | 15 kts | 86° |
| 2026-04-27 11:12 | 27.91921 | -15.39220 | 70 ft | 16 kts | 28° |
| 2026-04-27 11:12 | 27.92063 | -15.39154 | 68 ft | 41 kts | 21° |
| 2026-04-27 11:12 | 27.92543 | -15.38980 | 62 ft | 102 kts | 12° |
| 2026-04-27 11:12 | 27.93326 | -15.38838 | 367 ft | 124 kts | 344° |
| 2026-04-27 11:13 | 27.94246 | -15.38522 | 626 ft | 158 kts | 17° |
| 2026-04-27 11:13 | 27.95294 | -15.37984 | 1041 ft | 170 kts | 21° |
| 2026-04-27 11:13 | 27.96328 | -15.37416 | 1807 ft | 160 kts | 23° |
| 2026-04-27 11:13 | 27.97365 | -15.36889 | 2241 ft | 174 kts | 20° |
| 2026-04-27 11:14 | 27.98574 | -15.36334 | 2447 ft | 197 kts | 19° |
| 2026-04-27 11:14 | 27.99900 | -15.35747 | 2632 ft | 219 kts | 18° |
| 2026-04-27 11:14 | 28.01425 | -15.35086 | 2896 ft | 243 kts | 19° |
| 2026-04-27 11:14 | 28.03004 | -15.34407 | 3491 ft | 248 kts | 19° |
| 2026-04-27 11:15 | 28.04633 | -15.33705 | 3931 ft | 253 kts | 19° |
| 2026-04-27 11:15 | 28.06304 | -15.32975 | 4252 ft | 254 kts | 19° |
| 2026-04-27 11:15 | 28.07962 | -15.32252 | 4933 ft | 255 kts | 20° |
| 2026-04-27 11:15 | 28.09611 | -15.31533 | 5694 ft | 255 kts | 20° |
| 2026-04-27 11:16 | 28.11285 | -15.30805 | 6351 ft | 260 kts | 20° |
| 2026-04-27 11:16 | 28.12990 | -15.30062 | 6972 ft | 263 kts | 21° |
| 2026-04-27 11:16 | 28.14524 | -15.28948 | 7684 ft | 266 kts | 44° |
| 2026-04-27 11:16 | 28.15689 | -15.27275 | 8232 ft | 276 kts | 53° |
| 2026-04-27 11:17 | 28.16760 | -15.25460 | 8956 ft | 277 kts | 55° |
| 2026-04-27 11:17 | 28.17819 | -15.23616 | 9636 ft | 283 kts | 55° |
| 2026-04-27 11:17 | 28.18887 | -15.21750 | 10221 ft | 289 kts | 55° |
| 2026-04-27 11:17 | 28.20033 | -15.19756 | 10495 ft | 309 kts | 55° |
| 2026-04-27 11:18 | 28.21235 | -15.17675 | 10701 ft | 329 kts | 56° |
| 2026-04-27 11:18 | 28.22512 | -15.15469 | 11171 ft | 338 kts | 55° |
| 2026-04-27 11:18 | 28.23806 | -15.13238 | 11863 ft | 340 kts | 54° |
| 2026-04-27 11:18 | 28.25117 | -15.10980 | 12504 ft | 345 kts | 54° |
| 2026-04-27 11:19 | 28.26444 | -15.08697 | 13180 ft | 348 kts | 54° |
| 2026-04-27 11:19 | 28.27787 | -15.06387 | 13841 ft | 353 kts | 54° |
| 2026-04-27 11:19 | 28.29149 | -15.04047 | 14448 ft | 357 kts | 54° |
| 2026-04-27 11:19 | 28.30523 | -15.01684 | 15104 ft | 361 kts | 55° |
| 2026-04-27 11:20 | 28.31915 | -14.99291 | 15750 ft | 365 kts | 54° |
| 2026-04-27 11:20 | 28.33319 | -14.96875 | 16406 ft | 369 kts | 54° |
| 2026-04-27 11:20 | 28.34740 | -14.94428 | 17046 ft | 373 kts | 54° |
| 2026-04-27 11:20 | 28.36177 | -14.91954 | 17664 ft | 378 kts | 54° |
| 2026-04-27 11:21 | 28.37631 | -14.89448 | 18292 ft | 382 kts | 54° |
| 2026-04-27 11:21 | 28.39100 | -14.86915 | 18849 ft | 386 kts | 54° |
| 2026-04-27 11:21 | 28.40580 | -14.84362 | 19452 ft | 388 kts | 54° |
| 2026-04-27 11:21 | 28.42064 | -14.81799 | 20046 ft | 390 kts | 54° |
| 2026-04-27 11:22 | 28.43560 | -14.79214 | 20637 ft | 392 kts | 54° |
| 2026-04-27 11:22 | 28.45063 | -14.76617 | 21224 ft | 394 kts | 54° |
| 2026-04-27 11:22 | 28.46571 | -14.74009 | 21801 ft | 397 kts | 54° |
| 2026-04-27 11:22 | 28.48093 | -14.71375 | 22341 ft | 399 kts | 54° |
| 2026-04-27 11:23 | 28.49623 | -14.68726 | 22869 ft | 402 kts | 54° |
| 2026-04-27 11:23 | 28.51163 | -14.66058 | 23407 ft | 405 kts | 54° |
| 2026-04-27 11:23 | 28.52713 | -14.63370 | 23877 ft | 408 kts | 55° |
| 2026-04-27 11:23 | 28.54272 | -14.60665 | 24318 ft | 410 kts | 54° |
| 2026-04-27 11:24 | 28.55839 | -14.57946 | 24747 ft | 412 kts | 54° |
| 2026-04-27 11:24 | 28.57416 | -14.55205 | 25162 ft | 415 kts | 54° |
| 2026-04-27 11:24 | 28.59001 | -14.52450 | 25573 ft | 418 kts | 54° |
| 2026-04-27 11:24 | 28.60596 | -14.49677 | 25978 ft | 420 kts | 54° |
| 2026-04-27 11:25 | 28.62201 | -14.46882 | 26379 ft | 423 kts | 55° |
| 2026-04-27 11:25 | 28.63813 | -14.44075 | 26764 ft | 425 kts | 54° |
| 2026-04-27 11:25 | 28.65436 | -14.41247 | 27164 ft | 428 kts | 55° |
| 2026-04-27 11:25 | 28.67067 | -14.38401 | 27542 ft | 430 kts | 54° |
| 2026-04-27 11:26 | 28.68707 | -14.35539 | 27909 ft | 433 kts | 54° |
| 2026-04-27 11:26 | 28.70354 | -14.32663 | 28281 ft | 435 kts | 54° |
| 2026-04-27 11:26 | 28.72012 | -14.29766 | 28638 ft | 437 kts | 54° |
| 2026-04-27 11:26 | 28.73674 | -14.26859 | 28990 ft | 440 kts | 55° |
| 2026-04-27 11:27 | 28.75350 | -14.23927 | 29327 ft | 442 kts | 54° |
| 2026-04-27 11:27 | 28.77030 | -14.20984 | 29674 ft | 444 kts | 55° |
| 2026-04-27 11:27 | 28.78722 | -14.18019 | 29933 ft | 448 kts | 55° |
| 2026-04-27 11:27 | 28.80419 | -14.15042 | 30340 ft | 447 kts | 55° |
| 2026-04-27 11:28 | 28.82113 | -14.12068 | 30684 ft | 447 kts | 55° |
| 2026-04-27 11:28 | 28.83807 | -14.09092 | 30969 ft | 449 kts | 55° |
| 2026-04-27 11:28 | 28.85509 | -14.06101 | 31240 ft | 450 kts | 55° |
| 2026-04-27 11:28 | 28.87214 | -14.03103 | 31552 ft | 451 kts | 55° |
| 2026-04-27 11:29 | 28.88920 | -14.00099 | 31861 ft | 451 kts | 55° |
| 2026-04-27 11:29 | 28.90629 | -13.97090 | 32156 ft | 452 kts | 55° |
| 2026-04-27 11:29 | 28.92338 | -13.94077 | 32429 ft | 453 kts | 55° |
| 2026-04-27 11:29 | 28.94051 | -13.91055 | 32741 ft | 453 kts | 55° |
| 2026-04-27 11:30 | 28.95765 | -13.88030 | 33021 ft | 454 kts | 56° |
| 2026-04-27 11:30 | 28.97478 | -13.85004 | 33332 ft | 454 kts | 56° |
| 2026-04-27 11:30 | 28.99196 | -13.81967 | 33586 ft | 456 kts | 56° |
| 2026-04-27 11:30 | 29.00915 | -13.78926 | 33887 ft | 456 kts | 56° |
| 2026-04-27 11:31 | 29.02637 | -13.75877 | 34143 ft | 456 kts | 56° |
| 2026-04-27 11:31 | 29.04356 | -13.72832 | 34392 ft | 457 kts | 56° |
| 2026-04-27 11:31 | 29.06080 | -13.69776 | 34663 ft | 456 kts | 56° |
| 2026-04-27 11:31 | 29.07796 | -13.66730 | 34903 ft | 457 kts | 55° |
| 2026-04-27 11:32 | 29.09519 | -13.63670 | 35097 ft | 458 kts | 56° |
| 2026-04-27 11:32 | 29.11246 | -13.60601 | 35288 ft | 459 kts | 56° |
| 2026-04-27 11:32 | 29.12971 | -13.57533 | 35562 ft | 458 kts | 55° |
| 2026-04-27 11:32 | 29.14693 | -13.54470 | 35868 ft | 456 kts | 56° |
| 2026-04-27 11:33 | 29.16406 | -13.51420 | 36051 ft | 458 kts | 56° |
| 2026-04-27 11:33 | 29.18165 | -13.48365 | 36049 ft | 460 kts | 54° |
| 2026-04-27 11:33 | 29.21812 | -13.42418 | 36039 ft | 458 kts | 53° |
| 2026-04-27 11:34 | 29.25480 | -13.36512 | 36037 ft | 453 kts | 53° |
| 2026-04-27 11:34 | 29.29100 | -13.30621 | 36023 ft | 451 kts | 53° |
| 2026-04-27 11:35 | 29.32693 | -13.24731 | 36032 ft | 450 kts | 53° |
| 2026-04-27 11:35 | 29.35669 | -13.19837 | 36023 ft | 450 kts | 53° |
| 2026-04-27 11:36 | 29.39246 | -13.13947 | 36026 ft | 450 kts | 53° |
| 2026-04-27 11:36 | 29.42830 | -13.08041 | 36028 ft | 452 kts | 53° |
| 2026-04-27 11:37 | 29.46422 | -13.02112 | 36019 ft | 453 kts | 54° |
| 2026-04-27 11:37 | 29.50025 | -12.96156 | 36020 ft | 455 kts | 54° |
| 2026-04-27 11:38 | 29.53639 | -12.90173 | 36019 ft | 457 kts | 54° |
| 2026-04-27 11:38 | 29.57258 | -12.84172 | 36016 ft | 458 kts | 54° |
| 2026-04-27 11:39 | 29.60907 | -12.78114 | 36019 ft | 458 kts | 54° |
| 2026-04-27 11:39 | 29.64507 | -12.72128 | 36012 ft | 458 kts | 54° |
| 2026-04-27 11:40 | 29.67694 | -12.66821 | 36016 ft | 458 kts | 54° |
| 2026-04-27 11:40 | 29.71291 | -12.60823 | 36010 ft | 458 kts | 54° |
| 2026-04-27 11:41 | 29.74900 | -12.54786 | 36011 ft | 458 kts | 54° |
| 2026-04-27 11:41 | 29.78485 | -12.48738 | 36010 ft | 457 kts | 54° |
| 2026-04-27 11:42 | 29.82063 | -12.42686 | 36011 ft | 457 kts | 54° |
| 2026-04-27 11:42 | 29.85634 | -12.36644 | 36000 ft | 456 kts | 55° |
| 2026-04-27 11:43 | 29.89200 | -12.30601 | 35993 ft | 456 kts | 55° |
| 2026-04-27 11:43 | 29.92762 | -12.24557 | 35996 ft | 456 kts | 55° |
| 2026-04-27 11:44 | 29.96322 | -12.18507 | 35995 ft | 456 kts | 55° |
| 2026-04-27 11:44 | 29.99877 | -12.12458 | 36002 ft | 456 kts | 55° |
| 2026-04-27 11:45 | 30.03956 | -12.06903 | 36016 ft | 454 kts | 43° |
| 2026-04-27 11:45 | 30.08528 | -12.01874 | 35992 ft | 454 kts | 43° |
| 2026-04-27 11:46 | 30.13117 | -11.96843 | 35994 ft | 455 kts | 43° |
| 2026-04-27 11:46 | 30.17692 | -11.91759 | 35988 ft | 457 kts | 43° |
| 2026-04-27 11:47 | 30.22256 | -11.86645 | 35981 ft | 458 kts | 43° |
| 2026-04-27 11:47 | 30.26824 | -11.81509 | 35981 ft | 459 kts | 43° |
| 2026-04-27 11:48 | 30.31401 | -11.76357 | 35985 ft | 459 kts | 44° |
| 2026-04-27 11:48 | 30.35977 | -11.71199 | 35980 ft | 459 kts | 44° |
| 2026-04-27 11:49 | 30.40552 | -11.66037 | 35983 ft | 459 kts | 43° |
| 2026-04-27 11:49 | 30.45123 | -11.60873 | 35980 ft | 459 kts | 44° |
| 2026-04-27 11:50 | 30.49687 | -11.55709 | 35977 ft | 458 kts | 44° |
| 2026-04-27 11:50 | 30.54241 | -11.50550 | 35973 ft | 457 kts | 44° |
| 2026-04-27 11:51 | 30.58784 | -11.45395 | 35967 ft | 456 kts | 44° |
| 2026-04-27 11:52 | 30.65546 | -11.37709 | 35982 ft | 455 kts | 44° |
| 2026-04-27 11:52 | 30.70067 | -11.32563 | 35979 ft | 454 kts | 44° |
| 2026-04-27 11:53 | 30.74580 | -11.27418 | 35965 ft | 454 kts | 44° |
| 2026-04-27 11:53 | 30.79088 | -11.22272 | 35969 ft | 454 kts | 44° |
| 2026-04-27 11:54 | 30.83595 | -11.17118 | 35966 ft | 454 kts | 44° |
| 2026-04-27 11:54 | 30.88103 | -11.11958 | 35961 ft | 455 kts | 44° |
| 2026-04-27 11:55 | 30.92610 | -11.06790 | 35970 ft | 455 kts | 44° |
| 2026-04-27 11:55 | 30.97122 | -11.01611 | 35970 ft | 456 kts | 44° |
| 2026-04-27 11:56 | 31.01636 | -10.96421 | 35966 ft | 456 kts | 45° |
| 2026-04-27 11:56 | 31.06155 | -10.91219 | 35974 ft | 456 kts | 45° |
| 2026-04-27 11:57 | 31.10668 | -10.86016 | 35954 ft | 456 kts | 45° |
| 2026-04-27 11:57 | 31.15181 | -10.80805 | 35957 ft | 456 kts | 45° |
| 2026-04-27 11:58 | 31.19659 | -10.75627 | 35956 ft | 456 kts | 45° |
| 2026-04-27 11:58 | 31.24163 | -10.70413 | 35953 ft | 456 kts | 45° |
| 2026-04-27 11:59 | 31.28663 | -10.65195 | 35952 ft | 455 kts | 45° |
| 2026-04-27 11:59 | 31.33186 | -10.59944 | 35955 ft | 455 kts | 45° |
| 2026-04-27 12:00 | 31.37643 | -10.54762 | 35943 ft | 455 kts | 45° |
| 2026-04-27 12:00 | 31.42123 | -10.49546 | 35954 ft | 454 kts | 45° |
| 2026-04-27 12:01 | 31.46598 | -10.44328 | 35955 ft | 454 kts | 45° |
| 2026-04-27 12:01 | 31.51070 | -10.39105 | 35950 ft | 454 kts | 45° |
| 2026-04-27 12:02 | 31.55538 | -10.33880 | 35958 ft | 454 kts | 46° |
| 2026-04-27 12:02 | 31.60002 | -10.28652 | 35952 ft | 454 kts | 46° |
| 2026-04-27 12:03 | 31.64467 | -10.23416 | 35951 ft | 454 kts | 46° |
| 2026-04-27 12:03 | 31.68926 | -10.18179 | 35930 ft | 454 kts | 46° |
| 2026-04-27 12:04 | 31.73387 | -10.12932 | 35939 ft | 454 kts | 46° |
| 2026-04-27 12:04 | 31.77847 | -10.07678 | 35941 ft | 455 kts | 46° |
| 2026-04-27 12:05 | 31.82313 | -10.02410 | 35945 ft | 455 kts | 46° |
| 2026-04-27 12:05 | 31.86787 | -9.97125 | 35936 ft | 456 kts | 46° |
| 2026-04-27 12:06 | 31.91266 | -9.91827 | 35939 ft | 457 kts | 46° |
| 2026-04-27 12:06 | 31.95746 | -9.86520 | 35933 ft | 457 kts | 46° |
| 2026-04-27 12:07 | 32.00226 | -9.81205 | 35917 ft | 457 kts | 46° |
| 2026-04-27 12:07 | 32.04707 | -9.75879 | 35927 ft | 458 kts | 46° |
| 2026-04-27 12:08 | 32.09189 | -9.70546 | 35925 ft | 458 kts | 46° |
| 2026-04-27 12:08 | 32.13644 | -9.65237 | 35925 ft | 458 kts | 46° |
| 2026-04-27 12:09 | 32.18160 | -9.59846 | 35920 ft | 459 kts | 47° |
| 2026-04-27 12:09 | 32.22615 | -9.54522 | 35921 ft | 459 kts | 47° |
| 2026-04-27 12:10 | 32.27099 | -9.49154 | 35917 ft | 459 kts | 47° |
| 2026-04-27 12:10 | 32.31580 | -9.43782 | 35907 ft | 459 kts | 47° |
| 2026-04-27 12:11 | 32.36059 | -9.38404 | 35916 ft | 459 kts | 47° |
| 2026-04-27 12:11 | 32.40534 | -9.33022 | 35915 ft | 459 kts | 47° |
| 2026-04-27 12:12 | 32.45011 | -9.27632 | 35913 ft | 459 kts | 47° |
| 2026-04-27 12:12 | 32.49486 | -9.22234 | 35911 ft | 459 kts | 47° |
| 2026-04-27 12:13 | 32.53965 | -9.16824 | 35909 ft | 460 kts | 47° |
| 2026-04-27 12:13 | 32.58441 | -9.11409 | 35911 ft | 460 kts | 47° |
| 2026-04-27 12:14 | 32.62917 | -9.05986 | 35898 ft | 459 kts | 47° |
| 2026-04-27 12:14 | 32.67384 | -9.00565 | 35905 ft | 459 kts | 47° |
| 2026-04-27 12:15 | 32.71852 | -8.95135 | 35912 ft | 460 kts | 47° |
| 2026-04-27 12:15 | 32.76319 | -8.89698 | 35909 ft | 460 kts | 47° |
| 2026-04-27 12:16 | 32.80791 | -8.84247 | 35904 ft | 460 kts | 47° |
| 2026-04-27 12:16 | 32.85260 | -8.78791 | 35909 ft | 461 kts | 47° |
| 2026-04-27 12:17 | 32.89730 | -8.73324 | 35904 ft | 461 kts | 47° |
| 2026-04-27 12:17 | 32.94200 | -8.67850 | 35888 ft | 461 kts | 47° |
| 2026-04-27 12:18 | 32.98668 | -8.62369 | 35887 ft | 461 kts | 47° |
| 2026-04-27 12:18 | 33.03135 | -8.56881 | 35897 ft | 461 kts | 47° |
| 2026-04-27 12:19 | 33.07601 | -8.51386 | 35890 ft | 461 kts | 47° |
| 2026-04-27 12:19 | 33.12062 | -8.45888 | 35886 ft | 461 kts | 47° |
| 2026-04-27 12:20 | 33.16525 | -8.40380 | 35890 ft | 462 kts | 47° |
| 2026-04-27 12:20 | 33.20381 | -8.35970 | 35873 ft | 463 kts | 38° |
| 2026-04-27 12:21 | 33.25790 | -8.31786 | 35862 ft | 464 kts | 32° |
| 2026-04-27 12:21 | 33.31293 | -8.27754 | 35874 ft | 464 kts | 32° |
| 2026-04-27 12:22 | 33.36789 | -8.23676 | 35884 ft | 465 kts | 33° |
| 2026-04-27 12:22 | 33.42268 | -8.19553 | 35886 ft | 466 kts | 33° |
| 2026-04-27 12:23 | 33.47743 | -8.15410 | 35867 ft | 466 kts | 33° |
| 2026-04-27 12:23 | 33.53224 | -8.11253 | 35870 ft | 466 kts | 33° |
| 2026-04-27 12:24 | 33.58703 | -8.07095 | 35874 ft | 466 kts | 33° |
| 2026-04-27 12:24 | 33.64183 | -8.02930 | 35870 ft | 466 kts | 33° |
| 2026-04-27 12:25 | 33.69662 | -7.98759 | 35883 ft | 466 kts | 33° |
| 2026-04-27 12:25 | 33.75137 | -7.94586 | 35871 ft | 466 kts | 33° |
| 2026-04-27 12:26 | 33.80605 | -7.90411 | 35876 ft | 465 kts | 33° |
| 2026-04-27 12:26 | 33.86065 | -7.86236 | 35875 ft | 465 kts | 33° |
| 2026-04-27 12:27 | 33.91520 | -7.82059 | 35875 ft | 464 kts | 33° |
| 2026-04-27 12:27 | 33.96968 | -7.77879 | 35882 ft | 464 kts | 33° |
| 2026-04-27 12:28 | 34.02413 | -7.73697 | 35880 ft | 464 kts | 33° |
| 2026-04-27 12:28 | 34.07816 | -7.69540 | 35877 ft | 464 kts | 33° |
| 2026-04-27 12:29 | 34.13249 | -7.65354 | 35875 ft | 463 kts | 33° |
| 2026-04-27 12:29 | 34.18675 | -7.61166 | 35878 ft | 463 kts | 33° |
| 2026-04-27 12:30 | 34.24096 | -7.56976 | 35875 ft | 463 kts | 33° |
| 2026-04-27 12:30 | 34.29518 | -7.52778 | 35879 ft | 463 kts | 33° |
| 2026-04-27 12:31 | 34.34943 | -7.48572 | 35884 ft | 463 kts | 33° |
| 2026-04-27 12:31 | 34.40375 | -7.44354 | 35882 ft | 464 kts | 33° |
| 2026-04-27 12:32 | 34.45812 | -7.40124 | 35888 ft | 465 kts | 33° |
| 2026-04-27 12:32 | 34.51256 | -7.35883 | 35883 ft | 465 kts | 33° |
| 2026-04-27 12:33 | 34.56706 | -7.31631 | 35876 ft | 466 kts | 33° |
| 2026-04-27 12:33 | 34.62157 | -7.27371 | 35887 ft | 466 kts | 33° |
| 2026-04-27 12:34 | 34.67612 | -7.23101 | 35882 ft | 467 kts | 33° |
| 2026-04-27 12:34 | 34.73067 | -7.18825 | 35881 ft | 466 kts | 33° |
| 2026-04-27 12:35 | 34.78521 | -7.14542 | 35896 ft | 466 kts | 33° |
| 2026-04-27 12:35 | 34.83970 | -7.10256 | 35885 ft | 466 kts | 33° |
| 2026-04-27 12:36 | 34.89418 | -7.05965 | 35887 ft | 466 kts | 33° |
| 2026-04-27 12:36 | 34.94863 | -7.01669 | 35892 ft | 466 kts | 33° |
| 2026-04-27 12:37 | 35.00299 | -6.97373 | 35886 ft | 466 kts | 33° |
| 2026-04-27 12:37 | 35.05730 | -6.93073 | 35890 ft | 465 kts | 33° |
| 2026-04-27 12:38 | 35.11157 | -6.88771 | 35886 ft | 465 kts | 33° |
| 2026-04-27 12:38 | 35.16574 | -6.84468 | 35891 ft | 464 kts | 33° |
| 2026-04-27 12:39 | 35.21983 | -6.80165 | 35887 ft | 463 kts | 33° |
| 2026-04-27 12:39 | 35.27384 | -6.75862 | 35878 ft | 463 kts | 33° |
| 2026-04-27 12:40 | 35.32703 | -6.71420 | 35872 ft | 463 kts | 41° |
| 2026-04-27 12:40 | 35.36920 | -6.65529 | 35872 ft | 460 kts | 60° |
| 2026-04-27 12:41 | 35.40077 | -6.58729 | 35885 ft | 459 kts | 62° |
| 2026-04-27 12:41 | 35.43245 | -6.51925 | 35875 ft | 460 kts | 61° |
| 2026-04-27 12:42 | 35.46526 | -6.45176 | 35865 ft | 461 kts | 59° |
| 2026-04-27 12:42 | 35.49912 | -6.38549 | 35879 ft | 462 kts | 59° |
| 2026-04-27 12:43 | 35.53323 | -6.31871 | 35876 ft | 462 kts | 59° |
| 2026-04-27 12:43 | 35.56719 | -6.25158 | 35884 ft | 463 kts | 59° |
| 2026-04-27 12:44 | 35.60109 | -6.18425 | 35901 ft | 463 kts | 59° |
| 2026-04-27 12:44 | 35.63500 | -6.11676 | 35914 ft | 465 kts | 60° |
| 2026-04-27 12:45 | 35.66900 | -6.04898 | 35912 ft | 466 kts | 59° |
| 2026-04-27 12:45 | 35.70311 | -5.98086 | 35918 ft | 468 kts | 60° |
| 2026-04-27 12:46 | 35.73711 | -5.91229 | 35917 ft | 470 kts | 62° |
| 2026-04-27 12:46 | 35.76629 | -5.84030 | 35910 ft | 471 kts | 67° |
| 2026-04-27 12:47 | 35.79389 | -5.76715 | 35913 ft | 471 kts | 66° |
| 2026-04-27 12:47 | 35.82222 | -5.69439 | 35898 ft | 471 kts | 66° |
| 2026-04-27 12:48 | 35.85100 | -5.62193 | 35977 ft | 471 kts | 65° |
| 2026-04-27 12:48 | 35.88033 | -5.54988 | 35999 ft | 470 kts | 65° |
| 2026-04-27 12:49 | 35.90952 | -5.47797 | 36016 ft | 468 kts | 65° |
| 2026-04-27 12:49 | 35.93852 | -5.40610 | 36019 ft | 467 kts | 65° |
| 2026-04-27 12:50 | 35.96737 | -5.33434 | 36025 ft | 466 kts | 65° |
| 2026-04-27 12:50 | 35.99612 | -5.26270 | 36019 ft | 465 kts | 65° |
| 2026-04-27 12:51 | 36.02523 | -5.19150 | 36022 ft | 464 kts | 64° |
| 2026-04-27 12:51 | 36.05479 | -5.12136 | 36042 ft | 463 kts | 63° |
| 2026-04-27 12:52 | 36.08439 | -5.05080 | 36037 ft | 462 kts | 64° |
| 2026-04-27 12:52 | 36.11378 | -4.98023 | 36040 ft | 461 kts | 64° |
| 2026-04-27 12:53 | 36.16145 | -4.87704 | 36046 ft | 462 kts | 50° |
| 2026-04-27 12:53 | 36.20558 | -4.81931 | 36045 ft | 462 kts | 45° |
| 2026-04-27 12:54 | 36.25068 | -4.76261 | 36044 ft | 462 kts | 45° |
| 2026-04-27 12:54 | 36.29554 | -4.70545 | 36047 ft | 463 kts | 46° |
| 2026-04-27 12:55 | 36.34020 | -4.64785 | 36052 ft | 463 kts | 46° |
| 2026-04-27 12:55 | 36.38481 | -4.59001 | 36055 ft | 464 kts | 46° |
| 2026-04-27 12:56 | 36.42943 | -4.53207 | 36055 ft | 464 kts | 46° |
| 2026-04-27 12:56 | 36.47401 | -4.47409 | 36062 ft | 464 kts | 46° |
| 2026-04-27 12:57 | 36.51858 | -4.41604 | 36053 ft | 464 kts | 46° |
| 2026-04-27 12:57 | 36.56313 | -4.35791 | 36070 ft | 464 kts | 46° |
| 2026-04-27 12:58 | 36.60758 | -4.29981 | 36070 ft | 463 kts | 46° |
| 2026-04-27 12:58 | 36.65198 | -4.24167 | 36066 ft | 463 kts | 46° |
| 2026-04-27 12:59 | 36.69598 | -4.18395 | 36070 ft | 462 kts | 46° |
| 2026-04-27 12:59 | 36.74013 | -4.12592 | 36063 ft | 461 kts | 46° |
| 2026-04-27 13:00 | 36.78423 | -4.06785 | 36047 ft | 460 kts | 46° |
| 2026-04-27 13:00 | 36.82821 | -4.00985 | 36049 ft | 460 kts | 46° |
| 2026-04-27 13:01 | 36.87209 | -3.95188 | 36048 ft | 459 kts | 46° |
| 2026-04-27 13:01 | 36.91591 | -3.89387 | 36030 ft | 459 kts | 47° |
| 2026-04-27 13:02 | 36.95960 | -3.83593 | 36039 ft | 458 kts | 47° |
| 2026-04-27 13:02 | 37.00318 | -3.77804 | 36028 ft | 457 kts | 47° |
| 2026-04-27 13:03 | 37.04670 | -3.72011 | 36046 ft | 456 kts | 47° |
| 2026-04-27 13:03 | 37.09012 | -3.66223 | 36048 ft | 455 kts | 47° |
| 2026-04-27 13:04 | 37.13370 | -3.60472 | 36046 ft | 455 kts | 46° |
| 2026-04-27 13:04 | 37.17785 | -3.54792 | 36052 ft | 454 kts | 46° |
| 2026-04-27 13:05 | 37.22185 | -3.49112 | 36049 ft | 454 kts | 46° |
| 2026-04-27 13:05 | 37.26578 | -3.43419 | 36044 ft | 454 kts | 46° |
| 2026-04-27 13:06 | 37.30970 | -3.37716 | 36031 ft | 454 kts | 46° |
| 2026-04-27 13:06 | 37.34614 | -3.32979 | 36038 ft | 454 kts | 46° |
| 2026-04-27 13:07 | 37.38996 | -3.27271 | 36034 ft | 454 kts | 46° |
| 2026-04-27 13:07 | 37.43375 | -3.21559 | 36036 ft | 454 kts | 46° |
| 2026-04-27 13:08 | 37.47754 | -3.15835 | 36040 ft | 454 kts | 45° |
| 2026-04-27 13:08 | 37.52135 | -3.10098 | 36027 ft | 454 kts | 46° |
| 2026-04-27 13:09 | 37.56510 | -3.04359 | 36026 ft | 455 kts | 45° |
| 2026-04-27 13:09 | 37.60894 | -2.98606 | 36035 ft | 455 kts | 45° |
| 2026-04-27 13:10 | 37.65281 | -2.92853 | 36034 ft | 455 kts | 45° |
| 2026-04-27 13:10 | 37.69670 | -2.87084 | 36062 ft | 455 kts | 45° |
| 2026-04-27 13:11 | 37.74055 | -2.81308 | 36049 ft | 456 kts | 45° |
| 2026-04-27 13:11 | 37.78436 | -2.75519 | 36052 ft | 456 kts | 45° |
| 2026-04-27 13:12 | 37.82809 | -2.69713 | 36061 ft | 456 kts | 45° |
| 2026-04-27 13:12 | 37.87173 | -2.63909 | 36059 ft | 455 kts | 45° |
| 2026-04-27 13:13 | 37.91531 | -2.58102 | 36081 ft | 455 kts | 45° |
| 2026-04-27 13:13 | 37.95885 | -2.52293 | 36060 ft | 452 kts | 45° |
| 2026-04-27 13:14 | 37.98043 | -2.49410 | 35689 ft | 450 kts | 45° |
| 2026-04-27 13:14 | 38.00182 | -2.46552 | 35366 ft | 444 kts | 45° |
| 2026-04-27 13:14 | 38.02274 | -2.43757 | 34991 ft | 441 kts | 45° |
| 2026-04-27 13:14 | 38.04409 | -2.40904 | 34612 ft | 438 kts | 45° |
| 2026-04-27 13:15 | 38.06471 | -2.38145 | 34245 ft | 435 kts | 45° |
| 2026-04-27 13:15 | 38.08550 | -2.35361 | 33827 ft | 433 kts | 45° |
| 2026-04-27 13:15 | 38.10614 | -2.32593 | 33409 ft | 430 kts | 45° |
| 2026-04-27 13:15 | 38.12663 | -2.29844 | 33015 ft | 427 kts | 45° |
| 2026-04-27 13:16 | 38.14697 | -2.27112 | 32645 ft | 424 kts | 45° |
| 2026-04-27 13:16 | 38.16715 | -2.24400 | 32276 ft | 421 kts | 45° |
| 2026-04-27 13:16 | 38.18746 | -2.21752 | 31927 ft | 416 kts | 39° |
| 2026-04-27 13:16 | 38.21066 | -2.19602 | 31557 ft | 410 kts | 27° |
| 2026-04-27 13:17 | 38.23610 | -2.18046 | 31222 ft | 403 kts | 17° |
| 2026-04-27 13:17 | 38.26288 | -2.17083 | 30875 ft | 398 kts | 11° |
| 2026-04-27 13:17 | 38.28977 | -2.16292 | 30519 ft | 395 kts | 10° |
| 2026-04-27 13:17 | 38.31650 | -2.15519 | 30174 ft | 393 kts | 10° |
| 2026-04-27 13:18 | 38.34311 | -2.14738 | 29765 ft | 391 kts | 11° |
| 2026-04-27 13:18 | 38.36947 | -2.13948 | 29375 ft | 388 kts | 10° |
| 2026-04-27 13:18 | 38.39559 | -2.13154 | 29025 ft | 384 kts | 11° |
| 2026-04-27 13:18 | 38.42153 | -2.12359 | 28640 ft | 382 kts | 11° |
| 2026-04-27 13:19 | 38.44722 | -2.11570 | 28268 ft | 379 kts | 11° |
| 2026-04-27 13:19 | 38.47275 | -2.10785 | 27909 ft | 376 kts | 11° |
| 2026-04-27 13:19 | 38.49800 | -2.09940 | 27549 ft | 375 kts | 17° |
| 2026-04-27 13:19 | 38.52125 | -2.08428 | 27189 ft | 376 kts | 33° |
| 2026-04-27 13:20 | 38.54087 | -2.06229 | 26855 ft | 377 kts | 48° |
| 2026-04-27 13:20 | 38.55723 | -2.03622 | 26523 ft | 375 kts | 51° |
| 2026-04-27 13:20 | 38.57303 | -2.00983 | 26157 ft | 373 kts | 51° |
| 2026-04-27 13:20 | 38.58873 | -1.98349 | 25808 ft | 372 kts | 51° |
| 2026-04-27 13:21 | 38.60445 | -1.95728 | 25463 ft | 370 kts | 51° |
| 2026-04-27 13:21 | 38.62016 | -1.93131 | 25110 ft | 369 kts | 51° |
| 2026-04-27 13:21 | 38.63587 | -1.90547 | 24775 ft | 368 kts | 51° |
| 2026-04-27 13:21 | 38.65157 | -1.87969 | 24410 ft | 367 kts | 51° |
| 2026-04-27 13:22 | 38.66726 | -1.85397 | 24072 ft | 366 kts | 51° |
| 2026-04-27 13:22 | 38.68290 | -1.82833 | 23710 ft | 365 kts | 51° |
| 2026-04-27 13:22 | 38.69851 | -1.80270 | 23324 ft | 364 kts | 51° |
| 2026-04-27 13:22 | 38.71402 | -1.77722 | 22942 ft | 362 kts | 51° |
| 2026-04-27 13:23 | 38.72946 | -1.75181 | 22566 ft | 360 kts | 52° |
| 2026-04-27 13:23 | 38.74478 | -1.72658 | 22213 ft | 358 kts | 52° |
| 2026-04-27 13:23 | 38.76003 | -1.70142 | 21852 ft | 357 kts | 52° |
| 2026-04-27 13:23 | 38.77519 | -1.67640 | 21520 ft | 354 kts | 52° |
| 2026-04-27 13:24 | 38.79026 | -1.65151 | 21179 ft | 353 kts | 52° |
| 2026-04-27 13:24 | 38.80525 | -1.62674 | 20852 ft | 350 kts | 52° |
| 2026-04-27 13:24 | 38.82014 | -1.60210 | 20520 ft | 349 kts | 52° |
| 2026-04-27 13:24 | 38.83494 | -1.57761 | 20196 ft | 347 kts | 52° |
| 2026-04-27 13:25 | 38.84968 | -1.55320 | 19870 ft | 345 kts | 52° |
| 2026-04-27 13:25 | 38.86411 | -1.52928 | 19549 ft | 344 kts | 52° |
| 2026-04-27 13:25 | 38.87892 | -1.50470 | 19223 ft | 342 kts | 53° |
| 2026-04-27 13:25 | 38.89343 | -1.48062 | 18899 ft | 340 kts | 53° |
| 2026-04-27 13:26 | 38.90764 | -1.45701 | 18578 ft | 339 kts | 53° |
| 2026-04-27 13:26 | 38.92200 | -1.43313 | 18231 ft | 338 kts | 53° |
| 2026-04-27 13:26 | 38.93635 | -1.40926 | 17873 ft | 336 kts | 53° |
| 2026-04-27 13:26 | 38.95058 | -1.38556 | 17520 ft | 334 kts | 53° |
| 2026-04-27 13:27 | 38.96496 | -1.36159 | 17194 ft | 332 kts | 54° |
| 2026-04-27 13:27 | 38.97879 | -1.33852 | 16874 ft | 330 kts | 54° |
| 2026-04-27 13:27 | 38.99277 | -1.31521 | 16553 ft | 328 kts | 54° |
| 2026-04-27 13:27 | 39.00663 | -1.29205 | 16240 ft | 326 kts | 53° |
| 2026-04-27 13:28 | 39.02041 | -1.26903 | 15917 ft | 324 kts | 54° |
| 2026-04-27 13:28 | 39.03416 | -1.24605 | 15597 ft | 323 kts | 54° |
| 2026-04-27 13:28 | 39.04785 | -1.22319 | 15273 ft | 322 kts | 54° |
| 2026-04-27 13:28 | 39.06147 | -1.20044 | 14968 ft | 320 kts | 54° |
| 2026-04-27 13:29 | 39.07504 | -1.17777 | 14653 ft | 319 kts | 54° |
| 2026-04-27 13:29 | 39.08857 | -1.15515 | 14332 ft | 318 kts | 54° |
| 2026-04-27 13:29 | 39.10206 | -1.13256 | 14011 ft | 317 kts | 55° |
| 2026-04-27 13:29 | 39.11548 | -1.11008 | 13658 ft | 316 kts | 55° |
| 2026-04-27 13:30 | 39.12882 | -1.08771 | 13333 ft | 313 kts | 56° |
| 2026-04-27 13:30 | 39.14201 | -1.06558 | 13022 ft | 311 kts | 54° |
| 2026-04-27 13:30 | 39.15513 | -1.04356 | 12701 ft | 309 kts | 56° |
| 2026-04-27 13:30 | 39.16817 | -1.02166 | 12391 ft | 306 kts | 55° |
| 2026-04-27 13:31 | 39.18107 | -0.99996 | 12086 ft | 305 kts | 55° |
| 2026-04-27 13:31 | 39.19392 | -0.97835 | 11774 ft | 302 kts | 55° |
| 2026-04-27 13:31 | 39.20664 | -0.95693 | 11477 ft | 300 kts | 54° |
| 2026-04-27 13:31 | 39.21932 | -0.93554 | 11161 ft | 299 kts | 54° |
| 2026-04-27 13:32 | 39.23192 | -0.91432 | 10866 ft | 297 kts | 54° |
| 2026-04-27 13:32 | 39.24444 | -0.89320 | 10557 ft | 296 kts | 54° |
| 2026-04-27 13:32 | 39.25691 | -0.87217 | 10282 ft | 294 kts | 55° |
| 2026-04-27 13:32 | 39.26916 | -0.85148 | 10146 ft | 287 kts | 54° |
| 2026-04-27 13:33 | 39.28117 | -0.83119 | 10024 ft | 279 kts | 54° |
| 2026-04-27 13:33 | 39.29456 | -0.81303 | 9577 ft | 285 kts | 33° |
| 2026-04-27 13:33 | 39.31343 | -0.80601 | 9325 ft | 287 kts | 360° |
| 2026-04-27 13:33 | 39.33233 | -0.81323 | 9034 ft | 287 kts | 328° |
| 2026-04-27 13:34 | 39.34908 | -0.82707 | 8749 ft | 286 kts | 330° |
| 2026-04-27 13:34 | 39.36666 | -0.83897 | 8451 ft | 285 kts | 337° |
| 2026-04-27 13:34 | 39.38497 | -0.84856 | 8172 ft | 283 kts | 343° |
| 2026-04-27 13:34 | 39.40376 | -0.85612 | 7888 ft | 283 kts | 347° |
| 2026-04-27 13:35 | 39.42289 | -0.86206 | 7605 ft | 282 kts | 350° |
| 2026-04-27 13:35 | 39.44217 | -0.86654 | 7316 ft | 282 kts | 353° |
| 2026-04-27 13:35 | 39.46163 | -0.86950 | 7030 ft | 282 kts | 358° |
| 2026-04-27 13:35 | 39.48117 | -0.87080 | 6740 ft | 280 kts | 1° |
| 2026-04-27 13:36 | 39.50059 | -0.87043 | 6479 ft | 279 kts | 6° |
| 2026-04-27 13:36 | 39.51987 | -0.86842 | 6167 ft | 277 kts | 10° |
| 2026-04-27 13:36 | 39.53881 | -0.86481 | 5962 ft | 270 kts | 13° |
| 2026-04-27 13:36 | 39.55690 | -0.85982 | 5848 ft | 262 kts | 16° |
| 2026-04-27 13:37 | 39.57422 | -0.85355 | 5720 ft | 255 kts | 20° |
| 2026-04-27 13:37 | 39.59074 | -0.84626 | 5621 ft | 247 kts | 23° |
| 2026-04-27 13:37 | 39.60650 | -0.83795 | 5449 ft | 244 kts | 32° |
| 2026-04-27 13:37 | 39.61864 | -0.82341 | 5310 ft | 234 kts | 58° |
| 2026-04-27 13:38 | 39.62444 | -0.80431 | 5236 ft | 225 kts | 81° |
| 2026-04-27 13:38 | 39.62361 | -0.78435 | 5147 ft | 222 kts | 106° |
| 2026-04-27 13:38 | 39.61680 | -0.76649 | 5131 ft | 224 kts | 129° |
| 2026-04-27 13:38 | 39.60458 | -0.75381 | 5124 ft | 229 kts | 153° |
| 2026-04-27 13:39 | 39.58898 | -0.74936 | 5132 ft | 234 kts | 179° |
| 2026-04-27 13:39 | 39.57292 | -0.75299 | 5130 ft | 238 kts | 199° |
| 2026-04-27 13:39 | 39.55768 | -0.76152 | 5128 ft | 239 kts | 201° |
| 2026-04-27 13:39 | 39.54255 | -0.77007 | 5123 ft | 236 kts | 201° |
| 2026-04-27 13:40 | 39.52772 | -0.77836 | 5111 ft | 233 kts | 199° |
| 2026-04-27 13:40 | 39.51288 | -0.78660 | 5108 ft | 231 kts | 200° |
| 2026-04-27 13:40 | 39.49923 | -0.79748 | 5098 ft | 235 kts | 225° |
| 2026-04-27 13:40 | 39.49143 | -0.81679 | 5135 ft | 263 kts | 258° |
| 2026-04-27 13:41 | 39.49245 | -0.84043 | 5128 ft | 267 kts | 290° |
| 2026-04-27 13:41 | 39.50276 | -0.86027 | 5129 ft | 270 kts | 321° |
| 2026-04-27 13:41 | 39.51931 | -0.87069 | 5142 ft | 266 kts | 353° |
| 2026-04-27 13:41 | 39.53731 | -0.86827 | 5133 ft | 261 kts | 28° |
| 2026-04-27 13:42 | 39.55222 | -0.85466 | 5133 ft | 259 kts | 43° |
| 2026-04-27 13:42 | 39.56576 | -0.83980 | 5123 ft | 258 kts | 42° |
| 2026-04-27 13:42 | 39.57946 | -0.82496 | 5125 ft | 254 kts | 43° |
| 2026-04-27 13:42 | 39.59281 | -0.81071 | 5108 ft | 242 kts | 42° |
| 2026-04-27 13:43 | 39.60341 | -0.79454 | 4950 ft | 233 kts | 71° |
| 2026-04-27 13:43 | 39.60419 | -0.77425 | 4784 ft | 230 kts | 109° |
| 2026-04-27 13:43 | 39.59595 | -0.75675 | 4544 ft | 228 kts | 125° |
| 2026-04-27 13:43 | 39.58747 | -0.73909 | 4240 ft | 232 kts | 117° |
| 2026-04-27 13:44 | 39.58011 | -0.72044 | 3918 ft | 232 kts | 115° |
| 2026-04-27 13:44 | 39.57306 | -0.70183 | 3610 ft | 229 kts | 115° |
| 2026-04-27 13:44 | 39.56608 | -0.68346 | 3319 ft | 225 kts | 115° |
| 2026-04-27 13:44 | 39.55925 | -0.66549 | 3023 ft | 221 kts | 115° |
| 2026-04-27 13:45 | 39.55248 | -0.64777 | 2734 ft | 217 kts | 114° |
| 2026-04-27 13:45 | 39.54591 | -0.63051 | 2456 ft | 209 kts | 115° |
| 2026-04-27 13:45 | 39.53963 | -0.61400 | 2175 ft | 200 kts | 115° |
| 2026-04-27 13:45 | 39.53367 | -0.59831 | 1957 ft | 185 kts | 115° |
| 2026-04-27 13:46 | 39.52826 | -0.58381 | 1715 ft | 176 kts | 115° |
| 2026-04-27 13:46 | 39.52332 | -0.57004 | 1460 ft | 159 kts | 114° |
| 2026-04-27 13:46 | 39.51850 | -0.55814 | 1222 ft | 142 kts | 115° |
| 2026-04-27 13:46 | 39.51408 | -0.54673 | 969 ft | 141 kts | 115° |
| 2026-04-27 13:47 | 39.50995 | -0.53560 | 815 ft | 133 kts | 116° |
| 2026-04-27 13:47 | 39.50589 | -0.52502 | 674 ft | 130 kts | 116° |
| 2026-04-27 13:47 | 39.50188 | -0.51443 | 540 ft | 134 kts | 116° |
| 2026-04-27 13:47 | 39.49763 | -0.50346 | 351 ft | 136 kts | 116° |
| 2026-04-27 13:48 | 39.49355 | -0.49276 | 224 ft | 126 kts | 117° |
| 2026-04-27 13:48 | 39.49029 | -0.48428 | 213 ft | 84 kts | 116° |
| 2026-04-27 13:48 | 39.48988 | -0.48059 | 203 ft | 31 kts | 77° |
| 2026-04-27 13:48 | 39.49028 | -0.47838 | 203 ft | 15 kts | 77° |
| 2026-04-27 13:49 | 39.49051 | -0.47708 | 203 ft | 15 kts | 77° |
| 2026-04-27 13:49 | 39.49077 | -0.47587 | 198 ft | 14 kts | 45° |
| 2026-04-27 13:49 | 39.49101 | -0.47561 | 199 ft | 6 kts | 45° |
| 2026-04-27 13:49 | 39.49107 | -0.47553 | 194 ft | 0 kts | 45° |